createdAt,value
2023-03-23T16:02:25.524Z,55.28
2023-03-23T16:07:27.584Z,55.71
2023-03-23T16:12:29.330Z,57.13
2023-03-23T16:17:31.163Z,57.50
2023-03-23T16:22:32.988Z,58.05
2023-03-23T16:27:35.076Z,58.71
2023-03-23T16:37:37.497Z,59.42
2023-03-23T16:42:39.476Z,59.24
2023-03-23T16:47:42.425Z,59.07
2023-03-23T16:52:47.648Z,59.18
2023-03-23T16:57:49.378Z,59.67
2023-03-23T17:02:52.622Z,59.91
2023-03-23T17:07:55.966Z,60.13
2023-03-23T17:12:58.059Z,61.15
2023-03-23T17:17:59.904Z,60.36
2023-03-23T17:23:02.172Z,59.88
2023-03-23T17:28:05.873Z,60.99
2023-03-23T17:33:09.971Z,61.76
2023-03-23T17:38:11.998Z,61.39
2023-03-23T17:43:13.713Z,60.71
2023-03-23T17:48:15.612Z,60.91
2023-03-23T17:53:18.703Z,61.13
2023-03-23T17:58:20.844Z,60.37
2023-03-23T18:03:24.545Z,61.62
2023-03-23T18:08:26.992Z,61.25
2023-03-23T18:13:31.774Z,60.69
2023-03-23T18:18:34.097Z,60.55
2023-03-23T18:23:46.181Z,60.84
2023-03-23T18:28:56.071Z,61.73
2023-03-23T18:33:58.084Z,61.50
2023-03-23T18:39:00.073Z,61.15
2023-03-23T18:44:01.776Z,60.92
2023-03-23T18:49:04.287Z,59.68
2023-03-23T18:54:06.011Z,58.16
2023-03-23T18:59:07.681Z,58.66
2023-03-23T19:04:09.558Z,59.47
2023-03-23T19:09:12.717Z,60.38
2023-03-23T19:14:14.546Z,63.65
2023-03-23T19:19:16.584Z,65.17
2023-03-23T19:24:18.591Z,62.91
2023-03-23T19:29:26.528Z,58.86
2023-03-23T19:34:30.520Z,58.96
2023-03-23T19:39:33.629Z,60.22
2023-03-23T19:44:36.173Z,61.70
2023-03-23T19:49:39.010Z,62.40
2023-03-23T19:54:41.498Z,61.12
2023-03-23T19:59:44.536Z,59.42
2023-03-23T20:04:46.884Z,60.07
2023-03-23T20:09:48.848Z,61.42
2023-03-23T20:14:50.776Z,62.17
2023-03-23T20:19:52.549Z,61.92
2023-03-23T20:24:54.662Z,60.35
2023-03-23T20:29:57.024Z,60.01
2023-03-23T20:35:06.405Z,59.77
2023-03-23T20:40:14.478Z,59.47
2023-03-23T20:45:18.438Z,59.45
2023-03-23T20:50:20.310Z,60.01
2023-03-23T20:55:22.069Z,60.42
2023-03-23T21:00:23.787Z,60.66
2023-03-23T21:05:25.811Z,60.74
2023-03-23T21:10:28.520Z,60.91
2023-03-23T21:15:31.275Z,61.03
2023-03-23T21:20:34.119Z,60.94
2023-03-23T21:25:36.982Z,60.99
2023-03-23T21:30:45.348Z,60.93
2023-03-23T21:35:47.326Z,60.99
2023-03-23T21:40:49.410Z,60.94
2023-03-23T21:45:55.963Z,61.05
2023-03-23T21:50:57.677Z,61.00
2023-03-23T21:55:59.535Z,60.95
2023-03-23T22:01:02.232Z,60.99
2023-03-23T22:06:18.333Z,61.03
2023-03-23T22:11:24.605Z,61.05
2023-03-23T22:16:28.923Z,61.14
2023-03-23T22:21:31.492Z,61.18
2023-03-23T22:26:33.718Z,61.34
2023-03-23T22:31:39.677Z,61.64
2023-03-23T22:36:42.279Z,61.97
2023-03-23T22:41:44.948Z,62.28
2023-03-23T22:46:48.825Z,62.59
2023-03-23T22:51:51.644Z,61.66
2023-03-23T22:56:53.509Z,61.03
2023-03-23T23:01:55.762Z,60.66
2023-03-23T23:07:06.686Z,60.32
2023-03-23T23:12:15.231Z,60.14
2023-03-23T23:17:17.119Z,60.09
2023-03-23T23:22:19.600Z,59.81
2023-03-23T23:27:21.592Z,59.56
2023-03-23T23:32:23.395Z,59.52
2023-03-23T23:37:25.306Z,60.41
2023-03-23T23:42:27.178Z,61.45
2023-03-23T23:47:29.261Z,62.19
2023-03-23T23:52:30.990Z,62.24
2023-03-23T23:57:33.434Z,61.36
